sensor_id;sensor_type;location;lat;lon;timestamp;P1;durP1;ratioP1;P2;durP2;ratioP2
36105;SDS011;22159;55.736;38.048;2024-03-23T00:55:34;3.72;;;3.42;;
36105;SDS011;22159;55.736;38.048;2024-03-23T00:58:00;3.90;;;3.50;;
36105;SDS011;22159;55.736;38.048;2024-03-23T01:00:26;3.80;;;3.30;;
36105;SDS011;22159;55.736;38.048;2024-03-23T01:02:52;4.05;;;3.70;;
36105;SDS011;22159;55.736;38.048;2024-03-23T01:05:18;3.70;;;3.35;;
36105;SDS011;22159;55.736;38.048;2024-03-23T01:07:44;4.57;;;4.18;;
36105;SDS011;22159;55.736;38.048;2024-03-23T01:10:11;4.10;;;3.70;;
36105;SDS011;22159;55.736;38.048;2024-03-23T01:12:37;3.95;;;3.53;;
36105;SDS011;22159;55.736;38.048;2024-03-23T01:15:03;3.90;;;3.60;;
36105;SDS011;22159;55.736;38.048;2024-03-23T01:17:29;4.38;;;3.97;;
36105;SDS011;22159;55.736;38.048;2024-03-23T01:19:55;4.20;;;3.90;;
36105;SDS011;22159;55.736;38.048;2024-03-23T01:22:21;4.03;;;3.65;;
36105;SDS011;22159;55.736;38.048;2024-03-23T01:24:47;3.90;;;3.50;;
36105;SDS011;22159;55.736;38.048;2024-03-23T01:27:13;4.28;;;3.67;;
36105;SDS011;22159;55.736;38.048;2024-03-23T01:29:39;3.92;;;3.53;;
36105;SDS011;22159;55.736;38.048;2024-03-23T01:32:06;4.22;;;3.67;;
36105;SDS011;22159;55.736;38.048;2024-03-23T01:34:32;3.95;;;3.55;;
36105;SDS011;22159;55.736;38.048;2024-03-23T01:36:58;3.90;;;3.47;;
36105;SDS011;22159;55.736;38.048;2024-03-23T01:39:24;4.18;;;3.78;;
36105;SDS011;22159;55.736;38.048;2024-03-23T01:41:50;3.80;;;3.50;;
36105;SDS011;22159;55.736;38.048;2024-03-23T01:44:17;3.63;;;3.33;;
36105;SDS011;22159;55.736;38.048;2024-03-23T01:46:43;3.85;;;3.45;;
36105;SDS011;22159;55.736;38.048;2024-03-23T01:49:09;4.28;;;3.88;;
36105;SDS011;22159;55.736;38.048;2024-03-23T01:51:36;4.35;;;4.00;;
36105;SDS011;22159;55.736;38.048;2024-03-23T01:54:03;4.15;;;3.83;;
36105;SDS011;22159;55.736;38.048;2024-03-23T01:56:30;4.38;;;3.92;;
36105;SDS011;22159;55.736;38.048;2024-03-23T01:59:03;4.07;;;3.67;;
36105;SDS011;22159;55.736;38.048;2024-03-23T02:01:30;3.80;;;3.50;;
36105;SDS011;22159;55.736;38.048;2024-03-23T02:03:56;3.78;;;3.47;;
36105;SDS011;22159;55.736;38.048;2024-03-23T02:06:22;4.22;;;3.70;;
36105;SDS011;22159;55.736;38.048;2024-03-23T02:08:49;4.45;;;3.75;;
36105;SDS011;22159;55.736;38.048;2024-03-23T02:11:15;4.43;;;4.03;;
36105;SDS011;22159;55.736;38.048;2024-03-23T02:13:42;4.38;;;3.83;;
36105;SDS011;22159;55.736;38.048;2024-03-23T02:16:08;3.80;;;3.50;;
36105;SDS011;22159;55.736;38.048;2024-03-23T02:18:34;4.03;;;3.63;;
36105;SDS011;22159;55.736;38.048;2024-03-23T02:21:00;4.72;;;4.13;;
36105;SDS011;22159;55.736;38.048;2024-03-23T02:23:27;4.20;;;3.80;;
36105;SDS011;22159;55.736;38.048;2024-03-23T02:25:53;4.38;;;3.90;;
36105;SDS011;22159;55.736;38.048;2024-03-23T02:28:19;4.72;;;4.05;;
36105;SDS011;22159;55.736;38.048;2024-03-23T02:30:47;3.78;;;3.42;;
36105;SDS011;22159;55.736;38.048;2024-03-23T02:33:13;4.32;;;3.92;;
36105;SDS011;22159;55.736;38.048;2024-03-23T02:35:39;3.97;;;3.58;;
36105;SDS011;22159;55.736;38.048;2024-03-23T02:38:05;4.45;;;3.83;;
36105;SDS011;22159;55.736;38.048;2024-03-23T02:40:31;4.05;;;3.70;;
36105;SDS011;22159;55.736;38.048;2024-03-23T02:42:58;3.97;;;3.53;;
36105;SDS011;22159;55.736;38.048;2024-03-23T02:45:24;3.70;;;3.40;;
36105;SDS011;22159;55.736;38.048;2024-03-23T02:47:50;3.85;;;3.45;;
36105;SDS011;22159;55.736;38.048;2024-03-23T02:50:17;3.85;;;3.45;;
36105;SDS011;22159;55.736;38.048;2024-03-23T02:52:44;5.07;;;3.50;;
36105;SDS011;22159;55.736;38.048;2024-03-23T02:55:10;3.90;;;3.60;;
36105;SDS011;22159;55.736;38.048;2024-03-23T02:57:36;3.85;;;3.55;;
36105;SDS011;22159;55.736;38.048;2024-03-23T03:00:02;4.00;;;3.60;;
36105;SDS011;22159;55.736;38.048;2024-03-23T03:02:28;3.83;;;3.47;;
36105;SDS011;22159;55.736;38.048;2024-03-23T03:04:55;4.00;;;3.58;;
36105;SDS011;22159;55.736;38.048;2024-03-23T03:07:21;4.80;;;3.63;;
36105;SDS011;22159;55.736;38.048;2024-03-23T03:09:47;3.30;;;3.00;;
36105;SDS011;22159;55.736;38.048;2024-03-23T03:12:13;3.90;;;3.50;;
36105;SDS011;22159;55.736;38.048;2024-03-23T03:14:39;3.97;;;3.55;;
36105;SDS011;22159;55.736;38.048;2024-03-23T03:17:05;3.70;;;3.15;;
36105;SDS011;22159;55.736;38.048;2024-03-23T03:19:31;4.05;;;3.70;;
36105;SDS011;22159;55.736;38.048;2024-03-23T03:21:57;3.85;;;3.10;;
36105;SDS011;22159;55.736;38.048;2024-03-23T03:24:24;3.90;;;3.50;;
36105;SDS011;22159;55.736;38.048;2024-03-23T03:26:50;4.32;;;3.70;;
36105;SDS011;22159;55.736;38.048;2024-03-23T03:29:16;4.18;;;3.58;;
36105;SDS011;22159;55.736;38.048;2024-03-23T03:31:42;4.07;;;3.45;;
36105;SDS011;22159;55.736;38.048;2024-03-23T03:34:08;3.40;;;3.10;;
36105;SDS011;22159;55.736;38.048;2024-03-23T03:36:35;4.05;;;3.30;;
36105;SDS011;22159;55.736;38.048;2024-03-23T03:39:01;3.60;;;3.30;;
36105;SDS011;22159;55.736;38.048;2024-03-23T03:41:31;3.72;;;3.42;;
36105;SDS011;22159;55.736;38.048;2024-03-23T03:43:58;3.40;;;3.10;;
36105;SDS011;22159;55.736;38.048;2024-03-23T03:46:30;4.30;;;3.90;;
36105;SDS011;22159;55.736;38.048;2024-03-23T03:48:57;3.30;;;3.05;;
36105;SDS011;22159;55.736;38.048;2024-03-23T03:51:23;3.65;;;3.35;;
36105;SDS011;22159;55.736;38.048;2024-03-23T03:53:50;5.68;;;3.22;;
36105;SDS011;22159;55.736;38.048;2024-03-23T03:56:16;4.25;;;3.50;;
36105;SDS011;22159;55.736;38.048;2024-03-23T03:58:42;5.20;;;3.22;;
36105;SDS011;22159;55.736;38.048;2024-03-23T04:01:08;3.17;;;2.90;;
36105;SDS011;22159;55.736;38.048;2024-03-23T04:03:35;4.57;;;3.40;;
36105;SDS011;22159;55.736;38.048;2024-03-23T04:06:01;4.43;;;3.47;;
36105;SDS011;22159;55.736;38.048;2024-03-23T04:08:28;4.43;;;3.15;;
36105;SDS011;22159;55.736;38.048;2024-03-23T04:10:54;5.05;;;3.65;;
36105;SDS011;22159;55.736;38.048;2024-03-23T04:13:20;3.38;;;2.95;;
36105;SDS011;22159;55.736;38.048;2024-03-23T04:15:46;2.85;;;2.65;;
36105;SDS011;22159;55.736;38.048;2024-03-23T04:18:12;3.63;;;3.15;;
36105;SDS011;22159;55.736;38.048;2024-03-23T04:20:39;5.07;;;3.30;;
36105;SDS011;22159;55.736;38.048;2024-03-23T04:23:05;3.38;;;2.85;;
36105;SDS011;22159;55.736;38.048;2024-03-23T04:25:31;3.83;;;2.80;;
36105;SDS011;22159;55.736;38.048;2024-03-23T04:27:59;3.78;;;2.95;;
36105;SDS011;22159;55.736;38.048;2024-03-23T04:30:25;3.25;;;2.95;;
36105;SDS011;22159;55.736;38.048;2024-03-23T04:32:53;3.40;;;2.88;;
36105;SDS011;22159;55.736;38.048;2024-03-23T04:35:19;3.78;;;3.05;;
36105;SDS011;22159;55.736;38.048;2024-03-23T04:37:47;3.67;;;2.80;;
36105;SDS011;22159;55.736;38.048;2024-03-23T04:40:13;3.65;;;3.20;;
36105;SDS011;22159;55.736;38.048;2024-03-23T04:42:39;4.18;;;2.97;;
36105;SDS011;22159;55.736;38.048;2024-03-23T04:45:05;3.97;;;3.00;;
36105;SDS011;22159;55.736;38.048;2024-03-23T04:47:32;2.75;;;2.42;;
36105;SDS011;22159;55.736;38.048;2024-03-23T04:49:58;3.42;;;2.75;;
36105;SDS011;22159;55.736;38.048;2024-03-23T04:52:24;3.13;;;2.72;;
36105;SDS011;22159;55.736;38.048;2024-03-23T04:54:50;2.70;;;2.50;;
36105;SDS011;22159;55.736;38.048;2024-03-23T04:57:16;3.42;;;3.13;;
36105;SDS011;22159;55.736;38.048;2024-03-23T04:59:42;3.00;;;2.70;;
36105;SDS011;22159;55.736;38.048;2024-03-23T05:02:09;2.90;;;2.70;;
36105;SDS011;22159;55.736;38.048;2024-03-23T05:04:35;3.10;;;2.40;;
36105;SDS011;22159;55.736;38.048;2024-03-23T05:07:02;2.97;;;2.67;;
36105;SDS011;22159;55.736;38.048;2024-03-23T05:09:29;4.30;;;2.83;;
36105;SDS011;22159;55.736;38.048;2024-03-23T05:11:56;3.65;;;3.25;;
36105;SDS011;22159;55.736;38.048;2024-03-23T05:14:22;4.47;;;2.80;;
36105;SDS011;22159;55.736;38.048;2024-03-23T05:16:48;3.03;;;2.72;;
36105;SDS011;22159;55.736;38.048;2024-03-23T05:19:14;4.90;;;3.15;;
36105;SDS011;22159;55.736;38.048;2024-03-23T05:21:40;2.92;;;2.58;;
36105;SDS011;22159;55.736;38.048;2024-03-23T05:24:06;3.60;;;2.88;;
36105;SDS011;22159;55.736;38.048;2024-03-23T05:26:32;3.53;;;2.83;;
36105;SDS011;22159;55.736;38.048;2024-03-23T05:28:59;3.50;;;2.97;;
36105;SDS011;22159;55.736;38.048;2024-03-23T05:31:25;4.25;;;3.00;;
36105;SDS011;22159;55.736;38.048;2024-03-23T05:33:52;3.75;;;3.08;;
36105;SDS011;22159;55.736;38.048;2024-03-23T05:36:18;4.40;;;2.70;;
36105;SDS011;22159;55.736;38.048;2024-03-23T05:38:44;3.38;;;3.08;;
36105;SDS011;22159;55.736;38.048;2024-03-23T05:41:10;3.50;;;2.75;;
36105;SDS011;22159;55.736;38.048;2024-03-23T05:43:36;3.65;;;2.65;;
36105;SDS011;22159;55.736;38.048;2024-03-23T05:46:02;3.70;;;2.80;;
36105;SDS011;22159;55.736;38.048;2024-03-23T05:48:32;3.55;;;3.25;;
36105;SDS011;22159;55.736;38.048;2024-03-23T05:50:58;2.63;;;2.35;;
36105;SDS011;22159;55.736;38.048;2024-03-23T05:53:25;3.25;;;2.95;;
36105;SDS011;22159;55.736;38.048;2024-03-23T05:55:51;2.97;;;2.70;;
36105;SDS011;22159;55.736;38.048;2024-03-23T05:58:25;3.58;;;2.75;;
36105;SDS011;22159;55.736;38.048;2024-03-23T06:00:56;3.00;;;2.70;;
36105;SDS011;22159;55.736;38.048;2024-03-23T06:03:23;2.80;;;2.50;;
36105;SDS011;22159;55.736;38.048;2024-03-23T06:05:50;2.80;;;2.60;;
36105;SDS011;22159;55.736;38.048;2024-03-23T06:08:16;2.80;;;2.60;;
36105;SDS011;22159;55.736;38.048;2024-03-23T06:10:42;5.13;;;3.10;;
36105;SDS011;22159;55.736;38.048;2024-03-23T06:13:08;3.20;;;2.90;;
36105;SDS011;22159;55.736;38.048;2024-03-23T06:15:34;3.03;;;2.55;;
36105;SDS011;22159;55.736;38.048;2024-03-23T06:18:03;2.80;;;2.60;;
36105;SDS011;22159;55.736;38.048;2024-03-23T06:20:29;2.88;;;2.67;;
36105;SDS011;22159;55.736;38.048;2024-03-23T06:22:56;3.08;;;2.78;;
36105;SDS011;22159;55.736;38.048;2024-03-23T06:25:22;2.70;;;2.50;;
36105;SDS011;22159;55.736;38.048;2024-03-23T06:27:48;2.90;;;2.60;;
36105;SDS011;22159;55.736;38.048;2024-03-23T06:30:14;2.83;;;2.47;;
36105;SDS011;22159;55.736;38.048;2024-03-23T06:32:40;2.13;;;1.92;;
36105;SDS011;22159;55.736;38.048;2024-03-23T06:35:07;2.72;;;2.38;;
36105;SDS011;22159;55.736;38.048;2024-03-23T06:37:37;2.53;;;2.33;;
36105;SDS011;22159;55.736;38.048;2024-03-23T06:40:04;2.80;;;2.60;;
36105;SDS011;22159;55.736;38.048;2024-03-23T06:42:35;2.80;;;2.20;;
36105;SDS011;22159;55.736;38.048;2024-03-23T06:45:01;2.78;;;2.50;;
36105;SDS011;22159;55.736;38.048;2024-03-23T06:47:28;3.00;;;2.70;;
36105;SDS011;22159;55.736;38.048;2024-03-23T06:49:54;3.17;;;2.42;;
36105;SDS011;22159;55.736;38.048;2024-03-23T06:52:20;3.50;;;2.22;;
36105;SDS011;22159;55.736;38.048;2024-03-23T06:54:46;2.88;;;2.60;;
36105;SDS011;22159;55.736;38.048;2024-03-23T06:57:13;2.72;;;2.38;;
36105;SDS011;22159;55.736;38.048;2024-03-23T06:59:39;2.80;;;2.33;;
36105;SDS011;22159;55.736;38.048;2024-03-23T07:02:05;2.10;;;2.00;;
36105;SDS011;22159;55.736;38.048;2024-03-23T07:04:33;2.22;;;2.03;;
36105;SDS011;22159;55.736;38.048;2024-03-23T07:07:00;2.40;;;2.20;;
36105;SDS011;22159;55.736;38.048;2024-03-23T07:09:27;2.22;;;2.03;;
36105;SDS011;22159;55.736;38.048;2024-03-23T07:11:53;2.75;;;2.30;;
36105;SDS011;22159;55.736;38.048;2024-03-23T07:14:20;2.50;;;2.30;;
36105;SDS011;22159;55.736;38.048;2024-03-23T07:16:46;2.25;;;2.10;;
36105;SDS011;22159;55.736;38.048;2024-03-23T07:19:14;2.25;;;2.05;;
36105;SDS011;22159;55.736;38.048;2024-03-23T07:21:41;2.83;;;2.40;;
36105;SDS011;22159;55.736;38.048;2024-03-23T07:24:07;2.30;;;1.80;;
36105;SDS011;22159;55.736;38.048;2024-03-23T07:26:34;2.38;;;2.17;;
36105;SDS011;22159;55.736;38.048;2024-03-23T07:29:00;2.20;;;1.65;;
36105;SDS011;22159;55.736;38.048;2024-03-23T07:31:27;3.63;;;2.05;;
36105;SDS011;22159;55.736;38.048;2024-03-23T07:33:53;3.30;;;2.13;;
36105;SDS011;22159;55.736;38.048;2024-03-23T07:36:19;3.58;;;2.15;;
36105;SDS011;22159;55.736;38.048;2024-03-23T07:38:45;6.75;;;2.55;;
36105;SDS011;22159;55.736;38.048;2024-03-23T07:41:20;3.17;;;2.42;;
36105;SDS011;22159;55.736;38.048;2024-03-23T07:43:47;5.07;;;2.60;;
36105;SDS011;22159;55.736;38.048;2024-03-23T07:46:14;6.13;;;2.33;;
36105;SDS011;22159;55.736;38.048;2024-03-23T07:48:40;4.88;;;2.45;;
36105;SDS011;22159;55.736;38.048;2024-03-23T07:51:16;6.13;;;2.20;;
36105;SDS011;22159;55.736;38.048;2024-03-23T07:53:43;5.03;;;2.00;;
36105;SDS011;22159;55.736;38.048;2024-03-23T07:56:11;4.68;;;1.92;;
36105;SDS011;22159;55.736;38.048;2024-03-23T07:58:37;3.03;;;2.20;;
36105;SDS011;22159;55.736;38.048;2024-03-23T08:01:05;3.65;;;2.20;;
36105;SDS011;22159;55.736;38.048;2024-03-23T08:03:33;3.92;;;2.58;;
36105;SDS011;22159;55.736;38.048;2024-03-23T08:06:12;5.22;;;2.17;;
36105;SDS011;22159;55.736;38.048;2024-03-23T08:08:39;3.65;;;2.20;;
36105;SDS011;22159;55.736;38.048;2024-03-23T08:11:05;4.28;;;2.10;;
36105;SDS011;22159;55.736;38.048;2024-03-23T08:13:32;4.07;;;2.30;;
36105;SDS011;22159;55.736;38.048;2024-03-23T08:15:58;5.00;;;2.13;;
36105;SDS011;22159;55.736;38.048;2024-03-23T08:18:25;3.42;;;2.40;;
36105;SDS011;22159;55.736;38.048;2024-03-23T08:21:04;6.85;;;2.35;;
36105;SDS011;22159;55.736;38.048;2024-03-23T08:23:31;5.40;;;2.60;;
36105;SDS011;22159;55.736;38.048;2024-03-23T08:26:08;3.63;;;2.28;;
36105;SDS011;22159;55.736;38.048;2024-03-23T08:28:34;4.35;;;2.33;;
36105;SDS011;22159;55.736;38.048;2024-03-23T08:31:04;4.03;;;2.28;;
36105;SDS011;22159;55.736;38.048;2024-03-23T08:33:31;2.75;;;2.17;;
36105;SDS011;22159;55.736;38.048;2024-03-23T08:36:07;5.40;;;2.50;;
36105;SDS011;22159;55.736;38.048;2024-03-23T08:38:33;4.85;;;2.50;;
36105;SDS011;22159;55.736;38.048;2024-03-23T08:41:00;4.18;;;2.28;;
36105;SDS011;22159;55.736;38.048;2024-03-23T08:43:31;3.80;;;2.20;;
36105;SDS011;22159;55.736;38.048;2024-03-23T08:46:06;3.85;;;2.22;;
36105;SDS011;22159;55.736;38.048;2024-03-23T08:48:36;2.97;;;2.20;;
36105;SDS011;22159;55.736;38.048;2024-03-23T08:51:03;4.18;;;2.42;;
36105;SDS011;22159;55.736;38.048;2024-03-23T08:53:29;2.40;;;1.92;;
36105;SDS011;22159;55.736;38.048;2024-03-23T08:55:56;3.95;;;2.22;;
36105;SDS011;22159;55.736;38.048;2024-03-23T08:58:23;3.70;;;2.25;;
36105;SDS011;22159;55.736;38.048;2024-03-23T09:00:50;5.60;;;2.47;;
36105;SDS011;22159;55.736;38.048;2024-03-23T09:03:16;3.47;;;2.13;;
36105;SDS011;22159;55.736;38.048;2024-03-23T09:05:42;4.38;;;2.38;;
36105;SDS011;22159;55.736;38.048;2024-03-23T09:08:09;3.15;;;2.03;;
36105;SDS011;22159;55.736;38.048;2024-03-23T09:10:38;3.67;;;2.10;;
36105;SDS011;22159;55.736;38.048;2024-03-23T09:13:04;3.40;;;2.20;;
36105;SDS011;22159;55.736;38.048;2024-03-23T09:15:31;3.78;;;2.35;;
36105;SDS011;22159;55.736;38.048;2024-03-23T09:17:58;2.20;;;1.75;;
36105;SDS011;22159;55.736;38.048;2024-03-23T09:20:25;3.75;;;2.30;;
36105;SDS011;22159;55.736;38.048;2024-03-23T09:22:51;4.45;;;2.40;;
36105;SDS011;22159;55.736;38.048;2024-03-23T09:25:17;3.90;;;2.35;;
36105;SDS011;22159;55.736;38.048;2024-03-23T09:27:46;3.20;;;2.10;;
36105;SDS011;22159;55.736;38.048;2024-03-23T09:30:13;4.07;;;2.45;;
36105;SDS011;22159;55.736;38.048;2024-03-23T09:32:46;2.92;;;2.45;;
36105;SDS011;22159;55.736;38.048;2024-03-23T09:35:12;2.50;;;2.22;;
36105;SDS011;22159;55.736;38.048;2024-03-23T09:37:38;3.92;;;2.30;;
36105;SDS011;22159;55.736;38.048;2024-03-23T09:40:10;4.43;;;2.58;;
36105;SDS011;22159;55.736;38.048;2024-03-23T09:42:37;6.55;;;2.50;;
36105;SDS011;22159;55.736;38.048;2024-03-23T09:45:06;2.65;;;2.35;;
36105;SDS011;22159;55.736;38.048;2024-03-23T09:47:38;3.83;;;2.35;;
36105;SDS011;22159;55.736;38.048;2024-03-23T09:50:04;3.33;;;2.58;;
36105;SDS011;22159;55.736;38.048;2024-03-23T09:52:31;3.90;;;2.47;;
36105;SDS011;22159;55.736;38.048;2024-03-23T09:54:57;3.78;;;2.63;;
36105;SDS011;22159;55.736;38.048;2024-03-23T09:57:23;3.65;;;2.65;;
36105;SDS011;22159;55.736;38.048;2024-03-23T09:59:49;3.08;;;2.42;;
36105;SDS011;22159;55.736;38.048;2024-03-23T10:02:16;3.50;;;2.47;;
36105;SDS011;22159;55.736;38.048;2024-03-23T10:04:45;3.17;;;2.47;;
36105;SDS011;22159;55.736;38.048;2024-03-23T10:07:12;2.90;;;2.55;;
36105;SDS011;22159;55.736;38.048;2024-03-23T10:09:38;2.75;;;2.50;;
36105;SDS011;22159;55.736;38.048;2024-03-23T10:12:11;2.80;;;2.38;;
36105;SDS011;22159;55.736;38.048;2024-03-23T10:14:38;2.58;;;2.38;;
36105;SDS011;22159;55.736;38.048;2024-03-23T10:17:12;3.03;;;2.53;;
36105;SDS011;22159;55.736;38.048;2024-03-23T10:19:45;3.15;;;2.72;;
36105;SDS011;22159;55.736;38.048;2024-03-23T10:22:14;2.63;;;2.42;;
36105;SDS011;22159;55.736;38.048;2024-03-23T10:24:41;2.55;;;2.35;;
36105;SDS011;22159;55.736;38.048;2024-03-23T10:27:07;3.72;;;2.50;;
36105;SDS011;22159;55.736;38.048;2024-03-23T10:29:34;2.70;;;2.50;;
36105;SDS011;22159;55.736;38.048;2024-03-23T10:32:12;3.55;;;2.40;;
36105;SDS011;22159;55.736;38.048;2024-03-23T10:34:39;2.40;;;2.20;;
36105;SDS011;22159;55.736;38.048;2024-03-23T10:37:05;3.90;;;2.58;;
36105;SDS011;22159;55.736;38.048;2024-03-23T10:39:32;3.28;;;2.30;;
36105;SDS011;22159;55.736;38.048;2024-03-23T10:42:03;3.35;;;2.17;;
36105;SDS011;22159;55.736;38.048;2024-03-23T10:44:29;4.15;;;2.40;;
36105;SDS011;22159;55.736;38.048;2024-03-23T10:46:59;3.10;;;2.08;;
36105;SDS011;22159;55.736;38.048;2024-03-23T10:49:26;3.67;;;2.42;;
36105;SDS011;22159;55.736;38.048;2024-03-23T10:51:54;2.33;;;2.00;;
36105;SDS011;22159;55.736;38.048;2024-03-23T10:54:20;3.40;;;2.70;;
36105;SDS011;22159;55.736;38.048;2024-03-23T10:56:47;3.58;;;2.42;;
36105;SDS011;22159;55.736;38.048;2024-03-23T10:59:14;3.85;;;2.50;;
36105;SDS011;22159;55.736;38.048;2024-03-23T11:01:53;4.57;;;2.30;;
36105;SDS011;22159;55.736;38.048;2024-03-23T11:04:32;3.35;;;2.03;;
36105;SDS011;22159;55.736;38.048;2024-03-23T11:06:59;2.35;;;2.03;;
36105;SDS011;22159;55.736;38.048;2024-03-23T11:14:45;2.70;;;2.50;;
36105;SDS011;22159;55.736;38.048;2024-03-23T11:17:11;2.72;;;2.25;;
36105;SDS011;22159;55.736;38.048;2024-03-23T11:19:38;2.60;;;2.20;;
36105;SDS011;22159;55.736;38.048;2024-03-23T11:22:04;2.80;;;2.20;;
36105;SDS011;22159;55.736;38.048;2024-03-23T11:24:31;2.38;;;2.10;;
36105;SDS011;22159;55.736;38.048;2024-03-23T11:26:57;2.42;;;2.10;;
36105;SDS011;22159;55.736;38.048;2024-03-23T11:29:26;3.20;;;2.33;;
36105;SDS011;22159;55.736;38.048;2024-03-23T11:31:52;2.42;;;2.20;;
36105;SDS011;22159;55.736;38.048;2024-03-23T11:34:19;2.20;;;2.00;;
36105;SDS011;22159;55.736;38.048;2024-03-23T11:36:46;2.35;;;2.15;;
36105;SDS011;22159;55.736;38.048;2024-03-23T11:39:16;6.10;;;2.60;;
36105;SDS011;22159;55.736;38.048;2024-03-23T11:44:18;2.67;;;2.40;;
36105;SDS011;22159;55.736;38.048;2024-03-23T11:46:45;2.33;;;1.95;;
36105;SDS011;22159;55.736;38.048;2024-03-23T11:49:29;3.10;;;2.00;;
36105;SDS011;22159;55.736;38.048;2024-03-23T11:51:56;2.38;;;2.17;;
36105;SDS011;22159;55.736;38.048;2024-03-23T11:54:23;3.05;;;2.25;;
36105;SDS011;22159;55.736;38.048;2024-03-23T11:57:08;2.17;;;1.98;;
36105;SDS011;22159;55.736;38.048;2024-03-23T11:59:35;3.25;;;2.60;;
36105;SDS011;22159;55.736;38.048;2024-03-23T12:02:12;2.40;;;2.20;;
36105;SDS011;22159;55.736;38.048;2024-03-23T12:04:41;3.13;;;2.38;;
36105;SDS011;22159;55.736;38.048;2024-03-23T12:07:19;2.35;;;2.15;;
36105;SDS011;22159;55.736;38.048;2024-03-23T12:09:47;3.17;;;2.50;;
36105;SDS011;22159;55.736;38.048;2024-03-23T12:12:28;3.03;;;2.40;;
36105;SDS011;22159;55.736;38.048;2024-03-23T12:15:07;5.15;;;2.00;;
36105;SDS011;22159;55.736;38.048;2024-03-23T12:17:33;2.92;;;2.28;;
36105;SDS011;22159;55.736;38.048;2024-03-23T12:20:00;2.72;;;2.53;;
36105;SDS011;22159;55.736;38.048;2024-03-23T12:22:26;2.95;;;2.10;;
36105;SDS011;22159;55.736;38.048;2024-03-23T12:24:54;2.38;;;2.17;;
36105;SDS011;22159;55.736;38.048;2024-03-23T12:27:20;2.33;;;2.15;;
36105;SDS011;22159;55.736;38.048;2024-03-23T12:29:46;3.15;;;2.30;;
36105;SDS011;22159;55.736;38.048;2024-03-23T12:32:13;2.70;;;2.13;;
36105;SDS011;22159;55.736;38.048;2024-03-23T12:34:40;3.83;;;2.10;;
36105;SDS011;22159;55.736;38.048;2024-03-23T12:37:06;2.75;;;2.42;;
36105;SDS011;22159;55.736;38.048;2024-03-23T12:39:33;2.40;;;2.20;;
36105;SDS011;22159;55.736;38.048;2024-03-23T12:42:00;2.38;;;2.17;;
36105;SDS011;22159;55.736;38.048;2024-03-23T12:44:28;2.30;;;2.00;;
36105;SDS011;22159;55.736;38.048;2024-03-23T12:46:54;2.30;;;2.10;;
36105;SDS011;22159;55.736;38.048;2024-03-23T12:49:20;2.33;;;2.13;;
36105;SDS011;22159;55.736;38.048;2024-03-23T12:51:48;3.33;;;2.10;;
36105;SDS011;22159;55.736;38.048;2024-03-23T12:54:14;7.93;;;7.13;;
36105;SDS011;22159;55.736;38.048;2024-03-23T12:56:40;4.07;;;3.00;;
36105;SDS011;22159;55.736;38.048;2024-03-23T12:59:06;3.35;;;3.05;;
36105;SDS011;22159;55.736;38.048;2024-03-23T13:01:32;4.18;;;3.45;;
36105;SDS011;22159;55.736;38.048;2024-03-23T13:03:59;4.38;;;3.40;;
36105;SDS011;22159;55.736;38.048;2024-03-23T13:06:26;5.47;;;4.00;;
36105;SDS011;22159;55.736;38.048;2024-03-23T13:08:52;5.25;;;4.72;;
36105;SDS011;22159;55.736;38.048;2024-03-23T13:11:19;6.50;;;5.03;;
36105;SDS011;22159;55.736;38.048;2024-03-23T13:13:46;5.93;;;5.03;;
36105;SDS011;22159;55.736;38.048;2024-03-23T13:16:12;6.15;;;5.55;;
36105;SDS011;22159;55.736;38.048;2024-03-23T13:18:43;6.38;;;5.68;;
36105;SDS011;22159;55.736;38.048;2024-03-23T13:21:09;6.68;;;5.55;;
36105;SDS011;22159;55.736;38.048;2024-03-23T13:23:35;6.32;;;5.72;;
36105;SDS011;22159;55.736;38.048;2024-03-23T13:26:03;6.82;;;6.22;;
36105;SDS011;22159;55.736;38.048;2024-03-23T13:28:29;6.55;;;5.75;;
36105;SDS011;22159;55.736;38.048;2024-03-23T13:30:56;6.78;;;5.97;;
36105;SDS011;22159;55.736;38.048;2024-03-23T13:33:23;6.97;;;6.32;;
36105;SDS011;22159;55.736;38.048;2024-03-23T13:35:52;6.97;;;6.28;;
36105;SDS011;22159;55.736;38.048;2024-03-23T13:38:18;7.30;;;6.55;;
36105;SDS011;22159;55.736;38.048;2024-03-23T13:40:57;7.20;;;6.50;;
36105;SDS011;22159;55.736;38.048;2024-03-23T13:43:24;7.57;;;6.85;;
36105;SDS011;22159;55.736;38.048;2024-03-23T13:45:53;8.38;;;7.63;;
36105;SDS011;22159;55.736;38.048;2024-03-23T13:48:21;7.07;;;6.38;;
36105;SDS011;22159;55.736;38.048;2024-03-23T13:50:47;6.32;;;5.72;;
36105;SDS011;22159;55.736;38.048;2024-03-23T13:53:13;5.85;;;5.30;;
36105;SDS011;22159;55.736;38.048;2024-03-23T13:55:46;5.65;;;5.13;;
36105;SDS011;22159;55.736;38.048;2024-03-23T13:58:15;5.15;;;4.65;;
36105;SDS011;22159;55.736;38.048;2024-03-23T14:00:42;6.13;;;4.95;;
36105;SDS011;22159;55.736;38.048;2024-03-23T14:03:11;4.20;;;3.80;;
36105;SDS011;22159;55.736;38.048;2024-03-23T14:08:05;3.97;;;3.67;;
36105;SDS011;22159;55.736;38.048;2024-03-23T14:10:32;3.55;;;3.10;;
36105;SDS011;22159;55.736;38.048;2024-03-23T14:12:58;4.55;;;3.50;;
36105;SDS011;22159;55.736;38.048;2024-03-23T14:15:28;3.80;;;3.45;;
36105;SDS011;22159;55.736;38.048;2024-03-23T14:17:57;6.07;;;3.40;;
36105;SDS011;22159;55.736;38.048;2024-03-23T14:20:23;3.83;;;3.40;;
36105;SDS011;22159;55.736;38.048;2024-03-23T14:22:50;5.03;;;3.25;;
36105;SDS011;22159;55.736;38.048;2024-03-23T14:25:16;5.18;;;3.42;;
36105;SDS011;22159;55.736;38.048;2024-03-23T14:27:46;4.53;;;3.20;;
36105;SDS011;22159;55.736;38.048;2024-03-23T14:30:12;4.97;;;3.22;;
36105;SDS011;22159;55.736;38.048;2024-03-23T14:32:39;5.43;;;2.80;;
36105;SDS011;22159;55.736;38.048;2024-03-23T14:35:05;5.55;;;3.15;;
36105;SDS011;22159;55.736;38.048;2024-03-23T14:37:38;3.97;;;3.05;;
36105;SDS011;22159;55.736;38.048;2024-03-23T14:40:05;5.55;;;3.50;;
36105;SDS011;22159;55.736;38.048;2024-03-23T14:42:31;4.13;;;3.13;;
36105;SDS011;22159;55.736;38.048;2024-03-23T14:44:58;5.25;;;3.20;;
36105;SDS011;22159;55.736;38.048;2024-03-23T14:47:24;4.95;;;3.33;;
36105;SDS011;22159;55.736;38.048;2024-03-23T14:49:50;4.88;;;3.00;;
36105;SDS011;22159;55.736;38.048;2024-03-23T14:52:16;7.22;;;3.40;;
36105;SDS011;22159;55.736;38.048;2024-03-23T14:54:43;4.80;;;3.55;;
36105;SDS011;22159;55.736;38.048;2024-03-23T14:57:09;4.88;;;3.83;;
36105;SDS011;22159;55.736;38.048;2024-03-23T14:59:36;3.25;;;2.83;;
36105;SDS011;22159;55.736;38.048;2024-03-23T15:02:08;4.45;;;3.50;;
36105;SDS011;22159;55.736;38.048;2024-03-23T15:04:34;4.18;;;3.60;;
36105;SDS011;22159;55.736;38.048;2024-03-23T15:07:01;4.10;;;3.60;;
36105;SDS011;22159;55.736;38.048;2024-03-23T15:09:27;6.25;;;3.75;;
36105;SDS011;22159;55.736;38.048;2024-03-23T15:11:54;4.78;;;4.07;;
36105;SDS011;22159;55.736;38.048;2024-03-23T15:14:20;3.90;;;3.30;;
36105;SDS011;22159;55.736;38.048;2024-03-23T15:16:47;5.22;;;3.80;;
36105;SDS011;22159;55.736;38.048;2024-03-23T15:19:14;4.28;;;3.88;;
36105;SDS011;22159;55.736;38.048;2024-03-23T15:21:42;6.07;;;3.63;;
36105;SDS011;22159;55.736;38.048;2024-03-23T15:24:09;6.50;;;4.25;;
36105;SDS011;22159;55.736;38.048;2024-03-23T15:26:38;10.10;;;4.18;;
36105;SDS011;22159;55.736;38.048;2024-03-23T15:29:04;7.20;;;4.05;;
36105;SDS011;22159;55.736;38.048;2024-03-23T15:31:42;6.13;;;3.88;;
36105;SDS011;22159;55.736;38.048;2024-03-23T15:34:08;6.25;;;4.20;;
36105;SDS011;22159;55.736;38.048;2024-03-23T15:36:37;4.82;;;4.15;;
36105;SDS011;22159;55.736;38.048;2024-03-23T15:39:04;5.38;;;4.25;;